Terminal Aerodrome Forecast
Issued by NWS

Home | Current Version | Previous Version | Graphics & Text | Print | Product List | Glossary On
Versions: 1 2 3 4 5 6 7 8 9 10 11 12 13 14 15 16 17
000
FTUS42 KMHX 200500
TAFPGV
TAF
KPGV 200540Z 2006/2106 00000KT 2SM BR VV007
     FM200900 00000KT 3/4SM BR OVC003
     FM201300 21006KT P6SM SCT040
     FM210200 19003KT P6SM BKN040 BKN120
      AMD LTD TO CLD VIS AND WIND=

USA.gov is the U.S. government's official web portal to all federal, state and local government web resources and services.